createdAt,value
2018-06-15T00:00:07.556Z,3.30
2018-06-15T00:02:36.175Z,3.93
2018-06-15T00:05:04.543Z,3.80
2018-06-15T00:07:32.624Z,4.20
2018-06-15T00:10:01.308Z,4.37
2018-06-15T00:12:29.360Z,3.80
2018-06-15T00:15:04.012Z,4.30
2018-06-15T00:17:32.067Z,3.63
2018-06-15T00:20:00.128Z,4.80
2018-06-15T00:22:28.203Z,4.23
2018-06-15T00:24:56.245Z,3.83
2018-06-15T00:27:30.946Z,4.47
2018-06-15T00:29:58.999Z,4.03
2018-06-15T00:32:27.132Z,3.83
2018-06-15T00:34:55.179Z,4.40
2018-06-15T00:37:23.229Z,4.37
2018-06-15T00:39:51.304Z,3.53
2018-06-15T00:42:19.376Z,3.90
2018-06-15T00:44:47.423Z,4.57
2018-06-15T00:47:15.480Z,3.87
2018-06-15T00:49:43.543Z,4.13
2018-06-15T00:52:11.608Z,4.90
2018-06-15T00:54:39.678Z,4.80
2018-06-15T00:57:19.124Z,4.50
2018-06-15T00:59:47.241Z,4.40
2018-06-15T01:02:15.335Z,3.87
2018-06-15T01:04:43.482Z,4.03
2018-06-15T01:07:11.474Z,4.70
2018-06-15T01:09:39.574Z,8.03
2018-06-15T01:12:07.635Z,4.30
2018-06-15T01:14:35.690Z,4.00
2018-06-15T01:17:03.763Z,4.70
2018-06-15T01:19:31.812Z,4.37
2018-06-15T01:21:59.852Z,4.53
2018-06-15T01:24:27.924Z,4.30
2018-06-15T01:26:55.952Z,4.30
2018-06-15T01:29:24.015Z,4.77
2018-06-15T01:31:52.082Z,4.40
2018-06-15T01:34:20.151Z,4.30
2018-06-15T01:36:48.290Z,4.60
2018-06-15T01:39:16.346Z,3.93
2018-06-15T01:41:44.384Z,3.87
2018-06-15T01:44:12.472Z,4.97
2018-06-15T01:46:40.505Z,4.80
2018-06-15T01:49:08.551Z,5.93
2018-06-15T01:51:36.659Z,4.93
2018-06-15T01:54:04.724Z,5.10
2018-06-15T01:56:32.863Z,4.70
2018-06-15T01:59:00.920Z,4.83
2018-06-15T02:01:29.022Z,6.20
2018-06-15T02:03:57.023Z,4.93
2018-06-15T02:06:25.091Z,4.70
2018-06-15T02:08:53.153Z,4.97
2018-06-15T02:11:21.207Z,5.37
2018-06-15T02:13:49.287Z,5.90
2018-06-15T02:16:17.459Z,4.80
2018-06-15T02:18:45.659Z,5.30
2018-06-15T02:21:13.727Z,6.27
2018-06-15T02:23:41.812Z,5.97
2018-06-15T02:26:09.879Z,5.10
2018-06-15T02:28:37.977Z,5.50
2018-06-15T02:31:06.096Z,5.43
2018-06-15T02:33:34.187Z,5.00
2018-06-15T02:36:02.275Z,5.87
2018-06-15T02:38:30.439Z,5.83
2018-06-15T02:40:58.525Z,5.33
2018-06-15T02:43:26.597Z,5.10
2018-06-15T02:45:54.835Z,5.23
2018-06-15T02:48:22.916Z,5.10
2018-06-15T02:50:50.988Z,4.97
2018-06-15T02:53:19.095Z,5.50
2018-06-15T02:55:47.264Z,5.63
2018-06-15T02:58:15.355Z,5.97
2018-06-15T03:00:43.451Z,6.10
2018-06-15T03:03:11.566Z,5.53
2018-06-15T03:05:39.701Z,5.63
2018-06-15T03:08:07.770Z,5.93
2018-06-15T03:10:35.857Z,5.27
2018-06-15T03:13:03.928Z,5.67
2018-06-15T03:15:32.036Z,5.93
2018-06-15T03:18:00.144Z,6.03
2018-06-15T03:20:28.339Z,6.90
2018-06-15T03:22:56.422Z,6.00
2018-06-15T03:25:24.503Z,5.97
2018-06-15T03:27:52.583Z,6.30
2018-06-15T03:30:20.650Z,6.73
2018-06-15T03:32:48.715Z,5.87
2018-06-15T03:35:16.836Z,6.20
2018-06-15T03:37:44.952Z,7.13
2018-06-15T03:40:13.042Z,6.20
2018-06-15T03:42:41.143Z,6.70
2018-06-15T03:45:09.214Z,6.30
2018-06-15T03:47:37.278Z,6.30
2018-06-15T03:50:05.392Z,5.90
2018-06-15T03:52:33.467Z,5.80
2018-06-15T03:55:01.711Z,5.87
2018-06-15T03:57:29.781Z,6.33
2018-06-15T03:59:57.891Z,6.67
2018-06-15T04:02:25.998Z,7.00
2018-06-15T04:04:54.095Z,6.10
2018-06-15T04:07:22.184Z,6.40
2018-06-15T04:09:50.382Z,6.47
2018-06-15T04:12:18.464Z,6.40
2018-06-15T04:14:46.549Z,6.17
2018-06-15T04:17:14.632Z,6.50
2018-06-15T04:19:42.795Z,6.43
2018-06-15T04:22:10.931Z,6.87
2018-06-15T04:24:39.020Z,6.33
2018-06-15T04:27:07.099Z,6.53
2018-06-15T04:29:35.191Z,6.03
2018-06-15T04:32:03.439Z,6.20
2018-06-15T04:34:31.539Z,6.80
2018-06-15T04:36:59.620Z,7.20
2018-06-15T04:39:27.718Z,6.90
2018-06-15T04:41:55.795Z,6.80
2018-06-15T04:44:23.921Z,6.07
2018-06-15T04:46:52.030Z,6.00
2018-06-15T04:49:20.108Z,5.93
2018-06-15T04:51:48.220Z,6.63
2018-06-15T04:54:16.299Z,6.57
2018-06-15T04:56:44.415Z,6.00
2018-06-15T04:59:12.517Z,6.63
2018-06-15T05:01:40.591Z,5.50
2018-06-15T05:04:08.668Z,5.73
2018-06-15T05:06:36.765Z,6.10
2018-06-15T05:09:07.508Z,6.07
2018-06-15T05:11:35.589Z,5.23
2018-06-15T05:14:03.738Z,6.40
2018-06-15T05:16:31.913Z,5.67
2018-06-15T05:18:59.977Z,6.33
2018-06-15T05:21:28.103Z,5.50
2018-06-15T05:23:56.187Z,6.20
2018-06-15T05:26:24.337Z,6.20
2018-06-15T05:28:52.432Z,6.03
2018-06-15T05:31:20.518Z,5.80
2018-06-15T05:33:48.659Z,6.10
2018-06-15T05:36:16.772Z,6.40
2018-06-15T05:38:44.861Z,4.50
2018-06-15T05:41:19.596Z,5.57
2018-06-15T05:43:47.740Z,5.00
2018-06-15T05:46:15.847Z,6.30
2018-06-15T05:48:50.359Z,6.40
2018-06-15T05:51:18.475Z,5.40
2018-06-15T05:53:46.607Z,6.13
2018-06-15T05:56:14.688Z,6.23
2018-06-15T05:58:42.786Z,6.13
2018-06-15T06:01:11.137Z,5.47
2018-06-15T06:03:39.215Z,6.30
2018-06-15T06:06:07.312Z,7.10
2018-06-15T06:08:35.395Z,7.10
2018-06-15T06:11:03.517Z,6.57
2018-06-15T06:13:31.604Z,6.90
2018-06-15T06:15:59.684Z,6.57
2018-06-15T06:18:27.799Z,6.00
2018-06-15T06:20:55.902Z,7.00
2018-06-15T06:23:24.068Z,6.20
2018-06-15T06:25:52.164Z,6.50
2018-06-15T06:28:20.236Z,6.30
2018-06-15T06:30:48.380Z,6.50
2018-06-15T06:33:16.452Z,6.30
2018-06-15T06:35:44.557Z,7.47
2018-06-15T06:38:12.820Z,6.07
2018-06-15T06:40:40.927Z,6.40
2018-06-15T06:43:08.999Z,6.47
2018-06-15T06:45:37.106Z,7.30
2018-06-15T06:48:05.247Z,6.47
2018-06-15T06:50:33.404Z,6.60
2018-06-15T06:53:01.516Z,6.33
2018-06-15T06:55:29.636Z,7.40
2018-06-15T06:57:57.727Z,6.70
2018-06-15T07:00:25.874Z,6.40
2018-06-15T07:02:53.965Z,5.83
2018-06-15T07:05:22.078Z,7.40
2018-06-15T07:07:50.213Z,6.97
2018-06-15T07:10:18.286Z,6.47
2018-06-15T07:12:46.426Z,6.90
2018-06-15T07:15:14.505Z,6.10
2018-06-15T07:17:42.600Z,6.67
2018-06-15T07:20:10.676Z,7.50
2018-06-15T07:22:38.796Z,6.40
2018-06-15T07:25:06.881Z,6.50
2018-06-15T07:27:34.983Z,6.17
2018-06-15T07:30:03.172Z,6.60
2018-06-15T07:32:31.274Z,5.27
2018-06-15T07:34:59.388Z,6.20
2018-06-15T07:37:27.550Z,6.40
2018-06-15T07:39:55.611Z,5.80
2018-06-15T07:42:23.687Z,5.30
2018-06-15T07:44:51.759Z,7.00
2018-06-15T07:47:19.831Z,6.20
2018-06-15T07:49:47.936Z,5.67
2018-06-15T07:52:16.091Z,6.23
2018-06-15T07:54:44.166Z,6.43
2018-06-15T07:57:12.259Z,6.80
2018-06-15T07:59:40.415Z,6.00
2018-06-15T08:02:08.484Z,6.13
2018-06-15T08:04:36.589Z,5.50
2018-06-15T08:07:04.674Z,5.50
2018-06-15T08:09:32.776Z,5.33
2018-06-15T08:12:00.867Z,5.70
2018-06-15T08:14:28.951Z,5.40
2018-06-15T08:16:57.161Z,6.40
2018-06-15T08:19:25.261Z,6.43
2018-06-15T08:21:53.334Z,6.07
2018-06-15T08:24:21.528Z,6.20
2018-06-15T08:26:49.635Z,5.50
2018-06-15T08:29:17.710Z,5.03
2018-06-15T08:31:45.778Z,5.00
2018-06-15T08:34:13.864Z,5.30
2018-06-15T08:36:41.943Z,4.80
2018-06-15T08:39:11.518Z,4.90
2018-06-15T08:41:39.600Z,4.40
2018-06-15T08:44:07.680Z,5.07
2018-06-15T08:46:35.830Z,5.07
2018-06-15T08:49:03.911Z,4.50
2018-06-15T08:51:31.996Z,4.70
2018-06-15T08:54:00.073Z,3.43
2018-06-15T08:56:28.198Z,2.93
2018-06-15T08:58:56.292Z,3.50
2018-06-15T09:01:24.369Z,2.80
2018-06-15T09:03:52.447Z,3.70
2018-06-15T09:06:20.560Z,3.57
2018-06-15T09:08:48.647Z,3.77
2018-06-15T09:11:16.707Z,4.23
2018-06-15T09:13:44.808Z,3.40
2018-06-15T09:16:12.975Z,3.30
2018-06-15T09:18:41.255Z,3.80
2018-06-15T09:21:09.371Z,3.23
2018-06-15T09:23:37.449Z,3.40
2018-06-15T09:26:05.600Z,3.77
2018-06-15T09:28:33.719Z,3.00
2018-06-15T09:31:01.795Z,3.10
2018-06-15T09:33:30.032Z,3.50
2018-06-15T09:35:58.115Z,3.33
2018-06-15T09:38:26.208Z,2.93
2018-06-15T09:40:54.294Z,3.40
2018-06-15T09:43:22.375Z,3.97
2018-06-15T09:45:50.596Z,3.27
2018-06-15T09:48:18.723Z,2.90
2018-06-15T09:50:46.917Z,3.80
2018-06-15T09:53:14.995Z,3.53
2018-06-15T09:55:43.083Z,3.00
2018-06-15T09:58:11.162Z,3.50
2018-06-15T10:03:31.831Z,2.87
2018-06-15T10:05:59.903Z,3.30
2018-06-15T10:08:28.035Z,2.87
2018-06-15T10:10:56.121Z,2.90
2018-06-15T10:13:24.238Z,3.20
2018-06-15T10:15:52.378Z,3.30
2018-06-15T10:18:20.539Z,3.30
2018-06-15T10:20:48.603Z,3.00
2018-06-15T10:23:16.845Z,2.97
2018-06-15T10:25:44.977Z,3.60
2018-06-15T10:28:13.144Z,3.30
2018-06-15T10:30:41.300Z,3.07
2018-06-15T10:33:09.769Z,3.00
2018-06-15T10:35:38.002Z,3.40
2018-06-15T10:38:06.180Z,3.97
2018-06-15T10:40:34.242Z,3.37
2018-06-15T10:43:02.331Z,3.20
2018-06-15T10:45:30.428Z,2.60
2018-06-15T10:47:58.552Z,2.70
2018-06-15T10:50:26.701Z,3.67
2018-06-15T10:52:55.177Z,3.50
2018-06-15T10:55:23.362Z,3.03
2018-06-15T10:57:51.520Z,3.23
2018-06-15T11:00:19.603Z,3.20
2018-06-15T11:02:47.719Z,3.30
2018-06-15T11:05:15.864Z,3.30
2018-06-15T11:07:43.940Z,3.70
2018-06-15T11:10:12.059Z,3.93
2018-06-15T11:12:40.174Z,3.60
2018-06-15T11:15:08.236Z,3.67
2018-06-15T11:17:36.322Z,3.87
2018-06-15T11:20:05.234Z,4.40
2018-06-15T11:22:33.336Z,3.37
2018-06-15T11:25:01.506Z,3.50
2018-06-15T11:27:29.598Z,4.43
2018-06-15T11:29:57.671Z,4.60
2018-06-15T11:32:25.754Z,3.70
2018-06-15T11:34:53.937Z,4.13
2018-06-15T11:37:22.134Z,4.23
2018-06-15T11:39:50.225Z,4.17
2018-06-15T11:42:18.299Z,4.20
2018-06-15T11:44:46.381Z,4.40
2018-06-15T11:47:14.471Z,4.23
2018-06-15T11:49:42.561Z,4.83
2018-06-15T11:52:10.703Z,4.70
2018-06-15T11:54:38.778Z,4.33
2018-06-15T11:57:06.904Z,4.43
2018-06-15T11:59:34.999Z,3.70
2018-06-15T12:02:03.088Z,3.67
2018-06-15T12:04:31.207Z,4.10
2018-06-15T12:06:59.287Z,3.80
2018-06-15T12:09:27.396Z,4.70
2018-06-15T12:11:55.484Z,4.20
2018-06-15T12:14:23.566Z,3.77
2018-06-15T12:16:51.631Z,4.13
2018-06-15T12:19:19.711Z,4.17
2018-06-15T12:21:47.802Z,4.03
2018-06-15T12:24:15.900Z,3.50
2018-06-15T12:26:44.004Z,4.00
2018-06-15T12:29:12.144Z,4.70
2018-06-15T12:31:40.231Z,4.40
2018-06-15T12:34:08.363Z,3.43
2018-06-15T12:36:36.423Z,4.10
2018-06-15T12:39:07.224Z,3.60
2018-06-15T12:41:35.303Z,3.80
2018-06-15T12:44:03.416Z,4.50
2018-06-15T12:46:31.495Z,4.07
2018-06-15T12:48:59.600Z,4.20
2018-06-15T12:51:27.700Z,4.40
2018-06-15T12:53:55.786Z,4.77
2018-06-15T12:56:23.860Z,4.00
2018-06-15T12:58:52.004Z,4.10
2018-06-15T13:01:20.095Z,3.90
2018-06-15T13:03:48.180Z,3.60
2018-06-15T13:06:16.255Z,2.77
2018-06-15T13:08:44.346Z,4.10
2018-06-15T13:11:12.452Z,3.80
2018-06-15T13:13:40.596Z,3.80
2018-06-15T13:16:08.711Z,4.67
2018-06-15T13:18:36.811Z,4.20
2018-06-15T13:21:04.907Z,4.20
2018-06-15T13:23:34.967Z,5.03
2018-06-15T13:26:03.069Z,3.80
2018-06-15T13:28:31.268Z,3.90
2018-06-15T13:30:59.365Z,4.13
2018-06-15T13:33:27.439Z,3.87
2018-06-15T13:35:56.358Z,3.90
2018-06-15T13:38:24.458Z,3.67
2018-06-15T13:40:52.531Z,3.53
2018-06-15T13:43:20.652Z,4.07
2018-06-15T13:45:48.746Z,3.70
2018-06-15T13:48:16.872Z,3.17
2018-06-15T13:50:45.057Z,3.20
2018-06-15T13:53:13.173Z,3.27
2018-06-15T13:55:41.296Z,3.20
2018-06-15T13:58:09.382Z,2.87
2018-06-15T14:00:37.478Z,3.03
2018-06-15T14:03:05.554Z,3.00
2018-06-15T14:05:33.654Z,4.00
2018-06-15T14:08:01.743Z,3.40
2018-06-15T14:10:29.833Z,3.27
2018-06-15T14:12:57.957Z,3.07
2018-06-15T14:15:26.080Z,3.40
2018-06-15T14:17:54.203Z,2.73
2018-06-15T14:20:22.328Z,3.10
2018-06-15T14:22:50.420Z,3.23
2018-06-15T14:25:18.507Z,3.23
2018-06-15T14:27:50.549Z,3.40
2018-06-15T14:30:18.663Z,3.63
2018-06-15T14:32:46.792Z,3.43
2018-06-15T14:35:14.867Z,3.37
2018-06-15T14:37:42.976Z,3.17
2018-06-15T14:40:11.131Z,3.27
2018-06-15T14:42:39.197Z,3.00
2018-06-15T14:45:07.428Z,3.47
2018-06-15T14:47:35.496Z,3.20
2018-06-15T14:50:03.625Z,2.97
2018-06-15T14:52:31.824Z,3.60
2018-06-15T14:54:59.906Z,3.50
2018-06-15T14:57:28.011Z,3.57
2018-06-15T14:59:56.189Z,3.83
2018-06-15T15:02:24.324Z,4.00
2018-06-15T15:04:52.691Z,5.57
2018-06-15T15:07:20.720Z,3.37
2018-06-15T15:09:48.864Z,3.40
2018-06-15T15:12:16.936Z,3.73
2018-06-15T15:14:45.169Z,4.27
2018-06-15T15:17:13.256Z,3.97
2018-06-15T15:19:41.363Z,3.30
2018-06-15T15:22:09.519Z,4.20
2018-06-15T15:24:37.629Z,3.50
2018-06-15T15:27:05.705Z,2.93
2018-06-15T15:29:33.776Z,4.10
2018-06-15T15:32:01.890Z,3.90
2018-06-15T15:34:29.997Z,3.47
2018-06-15T15:36:58.104Z,3.60
2018-06-15T15:39:26.193Z,3.70
2018-06-15T15:41:54.358Z,4.10
2018-06-15T15:44:22.453Z,4.10
2018-06-15T15:46:50.529Z,3.30
2018-06-15T15:49:18.682Z,4.37
2018-06-15T15:51:46.780Z,3.93
2018-06-15T15:54:14.887Z,3.47
2018-06-15T15:56:43.041Z,4.00
2018-06-15T15:59:11.178Z,3.80
2018-06-15T16:01:39.278Z,4.03
2018-06-15T16:04:07.366Z,3.70
2018-06-15T16:06:35.450Z,3.60
2018-06-15T16:09:04.527Z,4.00
2018-06-15T16:11:32.631Z,4.47
2018-06-15T16:14:00.701Z,4.07
2018-06-15T16:16:28.794Z,3.50
2018-06-15T16:18:56.990Z,3.90
2018-06-15T16:21:25.076Z,4.63
2018-06-15T16:23:53.160Z,3.57
2018-06-15T16:26:21.261Z,4.10
2018-06-15T16:28:49.351Z,3.83
2018-06-15T16:31:17.424Z,3.70
2018-06-15T16:33:45.506Z,3.80
2018-06-15T16:36:14.617Z,3.47
2018-06-15T16:38:43.644Z,4.03
2018-06-15T16:41:12.039Z,3.87
2018-06-15T16:43:40.375Z,4.20
2018-06-15T16:46:08.719Z,3.80
2018-06-15T16:48:37.658Z,3.80
2018-06-15T16:51:05.799Z,4.03
2018-06-15T16:53:34.385Z,4.20
2018-06-15T16:56:03.816Z,4.90
2018-06-15T16:58:32.270Z,4.83
2018-06-15T17:01:00.443Z,3.87
2018-06-15T17:03:38.078Z,3.90
2018-06-15T17:06:06.434Z,4.40
2018-06-15T17:08:34.673Z,4.30
2018-06-15T17:11:02.911Z,4.87
2018-06-15T17:13:31.259Z,5.40
2018-06-15T17:15:59.487Z,5.17
2018-06-15T17:18:28.067Z,4.30
2018-06-15T17:20:56.293Z,3.53
2018-06-15T17:23:24.461Z,4.20
2018-06-15T17:25:52.795Z,4.07
2018-06-15T17:28:21.161Z,4.63
2018-06-15T17:30:52.298Z,3.90
2018-06-15T17:33:20.469Z,3.80
2018-06-15T17:35:48.912Z,3.93
2018-06-15T17:38:17.240Z,5.13
2018-06-15T17:40:45.760Z,6.10
2018-06-15T17:43:14.191Z,5.83
2018-06-15T17:45:42.374Z,5.10
2018-06-15T17:48:10.621Z,5.37
2018-06-15T17:50:39.811Z,4.33
2018-06-15T17:53:07.952Z,4.53
2018-06-15T17:55:36.415Z,4.30
2018-06-15T17:58:04.702Z,4.50
2018-06-15T18:00:32.846Z,4.20
2018-06-15T18:03:01.101Z,4.83
2018-06-15T18:05:29.213Z,3.67
2018-06-15T18:07:58.559Z,4.07
2018-06-15T18:10:26.723Z,4.57
2018-06-15T18:12:54.849Z,4.10
2018-06-15T18:15:22.970Z,4.33
2018-06-15T18:17:51.153Z,4.73
2018-06-15T18:20:19.287Z,3.43
2018-06-15T18:22:47.407Z,4.23
2018-06-15T18:25:15.554Z,3.90
2018-06-15T18:27:43.681Z,3.70
2018-06-15T18:30:11.811Z,5.10
2018-06-15T18:32:50.537Z,4.37
2018-06-15T18:35:18.676Z,4.13
2018-06-15T18:37:46.903Z,3.80
2018-06-15T18:40:15.282Z,3.77
2018-06-15T18:42:44.551Z,3.70
2018-06-15T18:45:12.738Z,3.93
2018-06-15T18:47:40.863Z,3.90
2018-06-15T18:50:09.104Z,3.47
2018-06-15T18:52:38.740Z,4.20
2018-06-15T18:55:06.946Z,3.20
2018-06-15T18:57:42.878Z,4.10
2018-06-15T19:00:11.922Z,4.37
2018-06-15T19:02:40.146Z,4.00
2018-06-15T19:05:08.366Z,3.93
2018-06-15T19:07:37.174Z,4.27
2018-06-15T19:10:05.291Z,3.73
2018-06-15T19:12:33.580Z,4.67
2018-06-15T19:15:01.766Z,3.50
2018-06-15T19:17:29.941Z,4.10
2018-06-15T19:19:58.190Z,4.10
2018-06-15T19:22:26.388Z,3.77
2018-06-15T19:24:54.539Z,4.03
2018-06-15T19:27:22.763Z,4.00
2018-06-15T19:29:51.020Z,3.90
2018-06-15T19:32:19.153Z,4.80
2018-06-15T19:34:47.423Z,4.97
2018-06-15T19:37:15.517Z,5.23
2018-06-15T19:39:43.706Z,5.23
2018-06-15T19:42:11.907Z,5.90
2018-06-15T19:44:40.023Z,6.23
2018-06-15T19:47:08.139Z,7.30
2018-06-15T19:49:36.245Z,6.73
2018-06-15T19:52:04.671Z,7.03
2018-06-15T19:54:34.060Z,6.13
2018-06-15T19:57:02.213Z,5.43
2018-06-15T19:59:30.364Z,5.60
2018-06-15T20:01:59.087Z,4.73
2018-06-15T20:04:35.129Z,4.80
2018-06-15T20:07:03.293Z,4.40
2018-06-15T20:09:31.399Z,5.30
2018-06-15T20:11:59.752Z,5.87
2018-06-15T20:14:27.879Z,6.70
2018-06-15T20:16:56.052Z,5.60
2018-06-15T20:19:24.179Z,5.83
2018-06-15T20:21:52.336Z,4.60
2018-06-15T20:24:20.448Z,5.83
2018-06-15T20:26:48.748Z,5.93
2018-06-15T20:29:16.917Z,5.90
2018-06-15T20:31:45.037Z,4.60
2018-06-15T20:34:13.174Z,5.17
2018-06-15T20:36:41.292Z,4.20
2018-06-15T20:39:10.155Z,4.77
2018-06-15T20:41:38.618Z,4.43
2018-06-15T20:44:07.032Z,11.93
2018-06-15T20:46:35.520Z,4.80
2018-06-15T20:49:03.915Z,6.30
2018-06-15T20:51:32.130Z,5.60
2018-06-15T20:54:00.289Z,5.33
2018-06-15T20:56:28.680Z,5.20
2018-06-15T20:58:56.875Z,4.93
2018-06-15T21:01:25.148Z,5.13
2018-06-15T21:03:53.332Z,4.53
2018-06-15T21:06:21.497Z,5.27
2018-06-15T21:08:49.726Z,4.83
2018-06-15T21:11:17.867Z,5.00
2018-06-15T21:13:46.037Z,5.10
2018-06-15T21:16:14.260Z,5.00
2018-06-15T21:18:46.899Z,5.00
2018-06-15T21:21:15.076Z,4.67
2018-06-15T21:23:43.199Z,5.20
2018-06-15T21:26:11.346Z,5.17
2018-06-15T21:28:39.501Z,4.77
2018-06-15T21:31:07.695Z,5.43
2018-06-15T21:33:37.272Z,5.60
2018-06-15T21:36:05.446Z,5.40
2018-06-15T21:38:33.632Z,5.03
2018-06-15T21:41:01.770Z,5.57
2018-06-15T21:43:29.914Z,6.50
2018-06-15T21:45:58.293Z,5.13
2018-06-15T21:48:28.282Z,5.63
2018-06-15T21:50:56.467Z,5.97
2018-06-15T21:53:24.589Z,5.23
2018-06-15T21:55:52.725Z,5.27
2018-06-15T21:58:20.901Z,5.40
2018-06-15T22:00:48.993Z,5.43
2018-06-15T22:03:17.122Z,5.53
2018-06-15T22:05:45.247Z,5.77
2018-06-15T22:08:13.469Z,6.30
2018-06-15T22:10:41.725Z,5.30
2018-06-15T22:13:09.918Z,5.13
2018-06-15T22:15:38.075Z,6.03
2018-06-15T22:18:08.801Z,5.87
2018-06-15T22:20:37.079Z,5.50
2018-06-15T22:23:05.247Z,5.70
2018-06-15T22:25:33.488Z,5.97
2018-06-15T22:28:01.798Z,5.90
2018-06-15T22:30:29.910Z,6.20
2018-06-15T22:32:58.271Z,6.07
2018-06-15T22:35:26.398Z,6.27
2018-06-15T22:37:54.735Z,6.90
2018-06-15T22:40:23.255Z,6.53
2018-06-15T22:42:51.439Z,7.00
2018-06-15T22:45:20.121Z,5.87
2018-06-15T22:47:48.426Z,6.23
2018-06-15T22:50:16.487Z,7.23
2018-06-15T22:52:44.574Z,7.87
2018-06-15T22:55:12.735Z,6.80
2018-06-15T22:57:40.848Z,6.13
2018-06-15T23:00:08.951Z,6.70
2018-06-15T23:02:37.197Z,7.03
2018-06-15T23:05:05.344Z,7.27
2018-06-15T23:07:33.467Z,7.27
2018-06-15T23:10:01.653Z,8.07
2018-06-15T23:12:29.723Z,6.60
2018-06-15T23:16:14.315Z,7.60
2018-06-15T23:18:43.211Z,6.70
2018-06-15T23:21:11.477Z,7.37
2018-06-15T23:23:39.727Z,6.67
2018-06-15T23:26:08.440Z,7.50
2018-06-15T23:28:37.444Z,8.50
2018-06-15T23:31:06.711Z,8.30
2018-06-15T23:33:42.150Z,7.90
2018-06-15T23:36:14.912Z,8.13
2018-06-15T23:38:44.572Z,8.70
2018-06-15T23:41:14.728Z,9.17
2018-06-15T23:43:44.654Z,9.83
2018-06-15T23:46:13.600Z,10.40
2018-06-15T23:48:41.985Z,10.70
2018-06-15T23:51:10.302Z,12.60
2018-06-15T23:53:38.690Z,10.67
2018-06-15T23:56:07.130Z,9.13
2018-06-15T23:58:35.531Z,8.60
